»·PEaware :: N5832H KSNA-KBUR

N5832H :: KSNA-KBUR

FLIGHT INFORMATION

Flight Status: Arrived
Operator: Privately registered:
United States
More flights under this callsign
Pilot: Fernando A. (32251)
Aircraft: CESSNA 172 SKYHAWK
(C172)
More flights by this aircraft type
Origin: KSNA John Wayne-Orange Co
United States
Destination: KBUR Bob Hope-Burbank
United States
More flights between these airports :: More routes between these airports
Route: +SLI V23 POPPR SMO125 SMO SMO311 SILEX+
File this flight plan on PilotEdge
Remarks: TEC route CSTP1
Altitude:
(Current/Filed)
4,000ft
Speed:
(Current/Filed)
110kts
Departed: 30-Nov-20 11:08 AM
Arrived: 30-Nov-20 11:47 AM
Distance/Time
Traveled:
40nm/0:38
Distance/Time
To Go:
Arrived

Flight Plot

Page will automatically refresh every two minutes.


Map Options




Map Legend


Flown Route
Filed Route
Departure Airport
Arrival Airport
Navaid (VOR, NDB)
Fix

Horizontal Profiles

Position Reports

Time Latitude Longitude Heading Altitude Ground
Speed
30-Nov-20 10:51 33.672595 -117.873027 249 55ft 0kts
30-Nov-20 10:52 33.672595 -117.873027 249 55ft 0kts
30-Nov-20 10:53 33.672595 -117.873027 249 55ft 0kts
30-Nov-20 10:54 33.672595 -117.873027 249 55ft 0kts
30-Nov-20 10:55 33.672595 -117.873027 249 55ft 0kts
30-Nov-20 10:56 33.672595 -117.873027 249 55ft 0kts
30-Nov-20 10:57 33.672595 -117.873027 249 55ft 0kts
30-Nov-20 10:58 33.672595 -117.873027 249 55ft 0kts
30-Nov-20 11:00 33.672595 -117.873027 249 55ft 0kts
30-Nov-20 11:01 33.672595 -117.873027 249 55ft 0kts
30-Nov-20 11:02 33.672595 -117.873027 249 55ft 0kts
30-Nov-20 11:03 33.672926 -117.872102 28 55ft 12kts
30-Nov-20 11:04 33.676871 -117.869598 27 53ft 20kts
30-Nov-20 11:05 33.681288 -117.866758 90 44ft 10kts
30-Nov-20 11:06 33.681190 -117.866386 116 43ft 5kts
30-Nov-20 11:07 33.672307 -117.870938 208 188ft 74kts
30-Nov-20 11:08 33.657428 -117.888703 230 884ft 80kts
30-Nov-20 11:09 33.643264 -117.909228 227 1651ft 78kts
30-Nov-20 11:10 33.630426 -117.931030 233 2329ft 81kts
30-Nov-20 11:11 33.616353 -117.954071 236 2939ft 90kts
30-Nov-20 11:12 33.607192 -117.980034 313 3599ft 89kts
30-Nov-20 11:13 33.629293 -117.997060 333 3947ft 110kts
30-Nov-20 11:14 33.656805 -118.016653 332 3963ft 117kts
30-Nov-20 11:15 33.684986 -118.036706 332 3960ft 118kts
30-Nov-20 11:16 33.712928 -118.057680 322 3962ft 119kts
30-Nov-20 11:17 33.733984 -118.088793 303 3961ft 121kts
30-Nov-20 11:18 33.749159 -118.124894 297 3960ft 120kts
30-Nov-20 11:19 33.762672 -118.160419 301 3958ft 114kts
30-Nov-20 11:20 33.779169 -118.191648 308 3964ft 113kts
30-Nov-20 11:21 33.796895 -118.221658 308 3961ft 113kts
30-Nov-20 11:22 33.815657 -118.252309 310 3962ft 113kts
30-Nov-20 11:23 33.835258 -118.281643 313 3965ft 113kts
30-Nov-20 11:24 33.855459 -118.309073 318 3983ft 111kts
30-Nov-20 11:25 33.878554 -118.334049 322 3986ft 112kts
30-Nov-20 11:26 33.902586 -118.356716 325 3984ft 111kts
30-Nov-20 11:27 33.926467 -118.378277 325 3984ft 111kts
30-Nov-20 11:28 33.951138 -118.400997 324 3985ft 112kts
30-Nov-20 11:29 33.975818 -118.424078 325 3988ft 112kts
30-Nov-20 11:30 34.000732 -118.446712 325 3985ft 112kts
30-Nov-20 11:31 34.025825 -118.468596 327 3983ft 111kts
30-Nov-20 11:32 34.051321 -118.489899 327 3984ft 111kts
30-Nov-20 11:33 34.076525 -118.512427 326 3995ft 115kts
30-Nov-20 11:34 34.103047 -118.534707 320 3972ft 117kts
30-Nov-20 11:35 34.119376 -118.569458 294 3972ft 120kts
30-Nov-20 11:36 34.131604 -118.606510 292 3981ft 118kts
30-Nov-20 11:37 34.143621 -118.643697 292 3990ft 119kts
30-Nov-20 11:38 34.167696 -118.636596 55 3987ft 113kts
30-Nov-20 11:39 34.183448 -118.603669 61 3901ft 116kts
30-Nov-20 11:40 34.198481 -118.567998 71 3393ft 119kts
30-Nov-20 11:41 34.198853 -118.529919 89 3214ft 113kts
30-Nov-20 11:42 34.199025 -118.490200 88 2733ft 120kts
30-Nov-20 11:43 34.198816 -118.450507 90 2177ft 117kts
30-Nov-20 11:44 34.198543 -118.410785 87 1468ft 115kts
30-Nov-20 11:45 34.197995 -118.376389 87 936ft 91kts
30-Nov-20 11:46 34.198410 -118.360236 0 717ft 8kts
30-Nov-20 11:47 34.198574 -118.360235 0 717ft 0kts
30-Nov-20 11:48 34.199594 -118.364535 359 721ft 12kts

Navigation Log

Ident Type
Flight plan parsing failed, navigation log unavailable